This is the latest recevied weather packets stored in our database for station/object SQ5SUI-3. If no packets are shown the sender has not sent any weather packets the latest 10 day(s).
| Time | Temp. | Humidity | Pressure | Rain* | Wind** | Luminosity | Snow |
|---|---|---|---|---|---|---|---|
| 1777433122 | -1.67° C | 64% | 996.3 hPa | 0 mm | - | - | - |
| 1777431322 | -0.56° C | 61% | 996.6 hPa | 0 mm | - | - | - |
| 1777429522 | 0° C | 59% | 996.9 hPa | 0 mm | - | - | - |
| 1777427722 | 0.56° C | 55% | 997.1 hPa | 0 mm | - | - | - |
| 1777425921 | 1.11° C | 52% | 997.2 hPa | 0 mm | - | - | - |
| 1777424121 | 2.22° C | 47% | 997.3 hPa | 0 mm | - | - | - |
| 1777422321 | 3.33° C | 46% | 997.5 hPa | 0 mm | - | - | - |
| 1777420521 | 4.44° C | 46% | 997.6 hPa | 0 mm | - | - | - |
| 1777418722 | 5° C | 51% | 997.9 hPa | 0 mm | - | - | - |
| 1777416921 | 5° C | 53% | 997.8 hPa | 0 mm | - | - | - |
| 1777415121 | 3.33° C | 64% | 998.1 hPa | 0 mm | - | - | - |
| 1777413320 | 4.44° C | 54% | 998 hPa | 0 mm | - | - | - |
| 1777411521 | 4.44° C | 53% | 998 hPa | 0 mm | - | - | - |
| 1777409721 | 3.89° C | 55% | 998.2 hPa | 0 mm | - | - | - |
| 1777407921 | 5° C | 53% | 998.6 hPa | 0 mm | - | - | - |
| 1777406122 | 5° C | 49% | 998.6 hPa | 0 mm | - | - | - |
| 1777404321 | 5.56° C | 48% | 998.8 hPa | 0 mm | - | - | - |
| 1777402520 | 3.33° C | 54% | 999.2 hPa | 0 mm | - | - | - |
| 1777400720 | 5.56° C | 44% | 999.6 hPa | 0 mm | - | - | - |
| 1777398921 | 7.22° C | 39% | 999.8 hPa | 0 mm | - | - | - |
| 1777397122 | 9.44° C | 32% | 1000 hPa | 0 mm | - | - | - |
| 1777395322 | 9.44° C | 31% | 1000.1 hPa | 0 mm | - | - | - |
| 1777393521 | 9.44° C | 29% | 1000.2 hPa | 0 mm | - | - | - |
| 1777391722 | 9.44° C | 29% | 1000.1 hPa | 0 mm | - | - | - |
| 1777389921 | 10° C | 24% | 1000.1 hPa | 0 mm | - | - | - |
* Rain latest hour (hover to see other rain measurements)
** Current wind speed in m/s (hover to see current wind gust speed)